Latest Coastal Weather Observations for Ngayawili (Elcho Island)

IDD60701

Issued at 6:25 am CST Friday 21 November 2014 (issued every 10 minutes, with the page automatically refreshed every 10 minutes)

About coastal observations | Map of coastal stations | Coastal observations for NT | Marine services | Other Formats
Station Details ID: 014517 Name: NGAYAWILI Lat: -12.00 Lon: 135.57 Height: 8.1 m
Data from the previous 72 hours. | See also: Recent months at Ngayawili (Elcho Island)
Date/Time
CST
Temp

°C
Wind Pressure Rain
since 9am
mm
Weather Cloud Vis
km
Sea
Height
m
Swell
Dir
 
Speed
knots
Gust
knots
hPa Trend Height
m
Period
s
Dir
21/06:00am 25.3 NE 7 9 1009.0 - 0.0 - - - - - - -
21/05:30am 24.7 ENE 4 5 1009.3 - 0.0 - - - - - - -
21/05:00am 24.7 ENE 5 5 1008.8 - 0.0 - - - - - - -
21/04:30am 24.7 ENE 5 6 1009.3 - 0.0 - - - - - - -
21/04:00am 24.7 ENE 4 5 1008.8 - 0.0 - - - - - - -
21/03:30am 24.8 ENE 4 6 1009.3 - 0.0 - - - - - - -
21/03:00am 24.7 ENE 4 5 1009.1 - 0.0 - - - - - - -
21/02:30am 24.4 ENE 4 5 1009.6 - 0.0 - - - - - - -
21/02:00am 25.2 ENE 4 5 1009.4 - 0.0 - - - - - - -
21/01:30am 25.4 ENE 3 5 1010.0 - 0.0 - - - - - - -
21/01:00am 25.6 ENE 4 5 1009.8 - 0.0 - - - - - - -
21/12:30am 26.1 ENE 4 5 1010.5 - 0.0 - - - - - - -
21/12:00am 26.5 ENE 3 5 1010.4 - 0.0 - - - - - - -
 
Date/Time
CST
Temp

°C
Wind Pressure Rain
since 9am
mm
Weather Cloud Vis
km
Sea
Height
m
Swell
Dir
 
Speed
knots
Gust
knots
hPa Trend Height
m
Period
s
Dir
20/11:30pm 27.0 ENE 4 6 1010.7 - 0.0 - - - - - - -
20/11:00pm 27.2 ENE 5 7 1010.9 - 0.0 - - - - - - -
20/10:30pm 27.6 NE 7 11 1009.4 - 0.0 - - - - - - -
20/10:00pm 27.9 ENE 7 12 1011.0 - 0.0 - - - - - - -
20/09:30pm 28.0 NE 6 10 1010.8 - 0.0 - - - - - - -
20/09:00pm 28.1 ENE 7 10 1010.8 - 0.0 - - - - - - -
20/08:30pm 28.2 ENE 5 8 1010.7 - 0.0 - - - - - - -
20/08:00pm 28.5 NE 6 9 1010.6 - 0.0 - - - - - - -
20/07:30pm 29.0 NE 8 13 1008.5 - 0.0 - - - - - - -
20/07:00pm 29.3 NNE 10 15 1010.5 - 0.0 - - - - - - -
20/06:30pm 29.5 NNE 11 15 1010.6 - 0.0 - - - - - - -
20/06:00pm 29.9 N 13 15 1010.8 - 0.0 - - - - - - -
20/05:30pm 30.6 N 13 15 1010.8 - 0.0 - - - - - - -
20/05:00pm 30.6 N 14 16 1010.8 - 0.0 - - - - - - -
20/04:30pm 31.4 N 13 15 1006.1 - 0.0 - - - - - - -
20/04:00pm 31.5 N 13 15 1011.1 - 0.0 - - - - - - -
20/03:30pm 31.9 N 12 15 1011.3 - 0.0 - - - - - - -
20/03:00pm 32.1 N 13 17 1011.6 - 0.0 - - - - - - -
20/02:30pm 32.2 N 14 16 1011.7 - 0.0 - - - - - - -
20/02:00pm 31.6 N 12 14 1011.8 - 0.0 - - - - - - -
20/01:30pm 32.1 N 13 16 1008.2 - 0.0 - - - - - - -
20/01:00pm 32.2 N 12 15 1012.4 - 0.0 - - - - - - -
20/12:30pm 32.3 N 12 14 1012.8 - 0.0 - - - - - - -
20/12:00pm 32.7 N 12 14 1013.0 - 0.0 - - - - - - -
20/11:30am 31.8 N 12 16 1012.7 - 0.0 - - - - - - -
20/11:00am 32.0 N 13 15 1012.7 - 0.0 - - - - - - -
20/10:30am 31.8 N 12 15 1011.3 - 0.0 - - - - - - -
20/10:00am 30.9 N 11 14 1012.4 - 0.0 - - - - - - -
20/09:30am 31.5 N 12 16 1012.3 - 0.0 - - - - - - -
20/09:00am 31.5 N 11 12 1012.2 - 0.0 - - - - - - -
20/08:30am 29.7 NE 7 10 1012.0 - 0.0 - - - - - - -
20/08:00am 29.3 E 5 7 1011.8 - 0.0 - - - - - - -
20/07:30am 28.8 NE 5 7 1011.5 - 0.0 - - - - - - -
20/07:00am 26.4 N 5 6 1011.3 - 0.0 - - - - - - -
20/06:30am 24.8 N 6 6 1011.3 - 0.0 - - - - - - -
20/06:00am 24.2 N 4 5 1011.1 - 0.0 - - - - - - -
20/05:30am 24.0 N 4 4 1011.2 - 0.0 - - - - - - -
20/05:00am 24.1 N 4 4 1011.2 - 0.0 - - - - - - -
20/04:30am 24.2 N 4 5 1009.0 - 0.0 - - - - - - -
20/04:00am 24.8 N 4 5 1011.5 - 0.0 - - - - - - -
20/03:30am 25.0 N 4 5 1012.1 - 0.0 - - - - - - -
20/03:00am 25.1 N 4 5 1012.5 - 0.0 - - - - - - -
20/02:30am 24.8 N 4 5 1014.8 - 0.0 - - - - - - -
20/02:00am 24.8 N 4 5 1013.7 - 0.0 - - - - - - -
20/01:30am 24.4 N 4 5 1014.2 - 0.0 - - - - - - -
20/01:00am 24.2 N 4 5 1014.4 - 0.0 - - - - - - -
20/12:30am 25.1 N 4 4 1014.7 - 0.0 - - - - - - -
20/12:00am 25.2 N 3 4 1015.0 - 0.0 - - - - - - -
 
Date/Time
CST
Temp

°C
Wind Pressure Rain
since 9am
mm
Weather Cloud Vis
km
Sea
Height
m
Swell
Dir
 
Speed
knots
Gust
knots
hPa Trend Height
m
Period
s
Dir
19/11:30pm 25.8 N 4 5 1015.3 - 0.0 - - - - - - -
19/11:00pm 26.0 N 4 5 1015.6 - 0.0 - - - - - - -
19/10:30pm 26.0 N 4 5 1015.6 - 0.0 - - - - - - -
19/10:00pm 26.0 N 4 5 1015.4 - 0.0 - - - - - - -
19/09:30pm 26.0 N 4 5 1015.3 - 0.0 - - - - - - -
19/09:00pm 26.4 N 4 5 1015.5 - 0.0 - - - - - - -
19/08:30pm 26.8 N 5 6 1015.4 - 0.0 - - - - - - -
19/08:00pm 27.4 N 4 6 1015.0 - 0.0 - - - - - - -
19/07:30pm 28.3 N 5 6 1008.5 - 0.0 - - - - - - -
19/07:00pm 28.5 N 6 7 1014.8 - 0.0 - - - - - - -
19/06:30pm 28.7 N 7 9 1014.7 - 0.0 - - - - - - -
19/06:00pm 29.1 N 8 10 1014.7 - 0.0 - - - - - - -
19/05:30pm 29.6 N 9 11 1014.7 - 0.0 - - - - - - -
19/05:00pm 30.0 N 10 12 1014.9 - 0.0 - - - - - - -
19/04:30pm 30.9 N 10 13 1007.1 - 0.0 - - - - - - -
19/04:00pm 30.7 N 11 13 1014.8 - 0.0 - - - - - - -
19/03:30pm 30.1 N 11 12 1014.8 - 0.0 - - - - - - -
19/03:00pm 29.9 N 11 14 1015.1 - 0.0 - - - - - - -
19/02:30pm 30.4 N 12 13 1015.1 - 0.0 - - - - - - -
19/02:00pm 31.4 N 12 14 1015.1 - 0.0 - - - - - - -
19/01:30pm 30.3 N 12 13 1015.4 - 0.0 - - - - - - -
19/01:00pm 31.0 N 11 13 1015.5 - 0.0 - - - - - - -
19/12:30pm 31.9 N 13 16 1015.5 - 0.0 - - - - - - -
19/12:00pm 31.4 N 13 15 1015.5 - 0.0 - - - - - - -
19/11:30am 31.5 N 12 14 1015.3 - 0.0 - - - - - - -
19/11:00am 32.0 N 13 15 1015.2 - 0.0 - - - - - - -
19/10:30am 31.5 N 12 16 1012.9 - 0.0 - - - - - - -
19/10:00am 31.2 N 11 15 1015.5 - 0.0 - - - - - - -
19/09:30am 31.2 NNE 9 12 1015.6 - 0.0 - - - - - - -
19/09:00am 30.2 N 10 12 1015.3 - 0.0 - - - - - - -
19/08:30am 29.8 N 8 10 1014.9 - 0.0 - - - - - - -
19/08:00am 29.0 N 6 8 1014.3 - 0.0 - - - - - - -
19/07:30am 28.4 NE 6 8 1014.9 - 0.0 - - - - - - -
19/07:00am 26.2 NE 6 8 1013.8 - 0.0 - - - - - - -
19/06:30am 24.5 NE 5 6 1013.4 - 0.0 - - - - - - -
19/06:00am 23.6 NE 4 5 1013.1 - 0.0 - - - - - - -
19/05:30am 24.4 NE 5 6 1013.1 - 0.0 - - - - - - -
19/05:00am 23.9 NE 5 6 1013.1 - 0.0 - - - - - - -
19/04:30am 23.5 NE 4 5 1009.8 - 0.0 - - - - - - -
19/04:00am 23.9 NE 4 5 1013.0 - 0.0 - - - - - - -
19/03:30am 24.5 NE 5 5 1013.4 - 0.0 - - - - - - -
19/03:00am 24.7 NE 4 5 1013.6 - 0.0 - - - - - - -
19/02:30am 24.8 NE 5 6 1013.6 - 0.0 - - - - - - -
19/02:00am 24.5 NE 4 6 1013.7 - 0.0 - - - - - - -
19/01:30am 24.2 NE 4 5 1011.8 - 0.0 - - - - - - -
19/01:00am 24.6 NE 4 5 1014.0 - 0.0 - - - - - - -
19/12:30am 25.2 NE 6 7 1014.2 - 0.0 - - - - - - -
19/12:00am 24.9 NE 4 5 1014.1 - 0.0 - - - - - - -
 
Date/Time
CST
Temp

°C
Wind Pressure Rain
since 9am
mm
Weather Cloud Vis
km
Sea
Height
m
Swell
Dir
 
Speed
knots
Gust
knots
hPa Trend Height
m
Period
s
Dir
18/11:30pm 25.1 CALM 0 0 1014.2 - 0.0 - - - - - - -
18/11:00pm 25.7 NE 3 4 1013.9 - 0.0 - - - - - - -
18/10:30pm 26.3 NE 4 5 1011.4 - 0.0 - - - - - - -
18/10:00pm 26.7 NE 3 5 1013.7 - 0.0 - - - - - - -
18/09:30pm 26.9 ENE 4 6 1013.6 - 0.0 - - - - - - -
18/09:00pm 27.0 ENE 4 6 1012.7 - 0.0 - - - - - - -
18/08:30pm 27.3 NE 4 6 1012.5 - 0.0 - - - - - - -
18/08:00pm 27.6 ENE 4 7 1011.6 - 0.0 - - - - - - -
18/07:30pm 28.1 E 5 7 1009.7 - 0.0 - - - - - - -
18/07:00pm 28.3 NE 5 9 1011.0 - 0.0 - - - - - - -
18/06:30pm 28.6 NNE 9 13 1010.7 - 0.0 - - - - - - -
18/06:00pm 29.3 NNE 12 16 1010.6 - 0.0 - - - - - - -
18/05:30pm 30.0 N 13 16 1009.8 - 0.0 - - - - - - -
18/05:00pm 30.1 N 15 17 1009.2 - 0.0 - - - - - - -
18/04:30pm 30.8 N 14 17 1010.2 - 0.0 - - - - - - -
18/04:00pm 31.5 N 15 19 1009.0 - 0.0 - - - - - - -
18/03:30pm 31.3 N 14 16 1008.5 - 0.0 - - - - - - -
18/03:00pm 31.5 N 12 14 1008.9 - 0.0 - - - - - - -
18/02:30pm 32.1 N 13 16 1008.7 - 0.0 - - - - - - -
18/02:00pm 32.0 N 13 15 1009.1 - 0.0 - - - - - - -
18/01:30pm 32.1 N 13 14 1008.9 - 0.0 - - - - - - -
18/01:00pm 31.8 N 12 13 1009.1 - 0.0 - - - - - - -
18/12:30pm 32.6 N 14 17 1009.6 - 0.0 - - - - - - -
18/12:00pm 32.3 NNW 13 15 1009.2 - 0.0 - - - - - - -
18/11:30am 31.3 NW 9 11 1009.6 - 0.0 - - - - - - -
18/11:00am 30.4 WNW 6 9 1009.7 - 0.0 - - - - - - -
18/10:30am 30.7 NW 9 10 1012.6 - 0.0 - - - - - - -
18/10:00am 31.1 NNW 9 11 1010.2 - 0.0 - - - - - - -
18/09:30am 29.8 N 9 11 1009.8 - 0.0 - - - - - - -
18/09:00am 29.6 N 7 8 1010.0 - 0.0 - - - - - - -
18/08:30am 29.1 N 6 7 1009.4 - 0.0 - - - - - - -
18/08:00am 28.8 NE 4 7 1008.8 - 0.0 - - - - - - -
18/07:30am 27.3 NNE 3 5 1010.6 - 0.0 - - - - - - -
18/07:00am 25.0 NNE 4 5 1008.7 - 0.0 - - - - - - -
18/06:30am 23.6 NNE 5 5 1008.5 - 0.0 - - - - - - -

Other Formats:

Comma delimited format used in spreadsheet applications
http://www.bom.gov.au/fwo/IDD60701/IDD60701.95146.axf

JavaScript Object Notation format (JSON) in row-major order
http://www.bom.gov.au/fwo/IDD60701/IDD60701.95146.json